Time;durP1;ratioP1;P1;durP2;ratioP2;P2;SDS_P1;SDS_P2;PMS_P1;PMS_P2;Temp;Humidity;BMP_temperature;BMP_pressure;BME280_temperature;BME280_humidity;BME280_pressure;Samples;Min_cycle;Max_cycle;Signal;HPM_P1;HPM_P2
2024/04/06 00:01:33;;;;;;;5.35;1.50;;;;;;;12.18;77.45;100949.31;5033902;28;20133;-72
2024/04/06 00:03:58;;;;;;;7.32;1.80;;;;;;;11.94;76.77;100943.22;5033650;28;20029;-71
2024/04/06 00:06:23;;;;;;;6.13;2.00;;;;;;;11.94;76.69;100952.69;5033950;28;20109;-70
2024/04/06 00:08:50;;;;;;;5.05;1.52;;;;;;;11.77;76.07;100955.47;5033866;28;20128;-73
2024/04/06 00:11:16;;;;;;;3.65;1.40;;;;;;;11.17;76.78;100902.22;5031878;28;20033;-72
2024/04/06 00:13:42;;;;;;;3.72;1.52;;;;;;;11.09;78.50;100947.53;5031988;28;20033;-72
2024/04/06 00:16:07;;;;;;;2.97;1.75;;;;;;;10.97;80.11;100947.03;5033412;28;20108;-73
2024/04/06 00:18:34;;;;;;;4.50;1.83;;;;;;;11.13;80.25;100944.25;5033836;28;20094;-71
2024/04/06 00:21:00;;;;;;;3.40;1.70;;;;;;;11.14;79.96;100952.88;5033389;28;20087;-71
2024/04/06 00:23:27;;;;;;;2.50;1.45;;;;;;;10.89;79.82;100918.28;5033702;28;20029;-72
2024/04/06 00:25:52;;;;;;;4.05;1.73;;;;;;;11.10;80.67;100951.91;5033440;28;20087;-71
2024/04/06 00:28:18;;;;;;;3.22;1.50;;;;;;;11.16;80.17;100934.06;5033406;28;20029;-71
2024/04/06 00:30:43;;;;;;;4.03;1.52;;;;;;;11.32;80.13;100945.03;5033481;28;20376;-72
2024/04/06 00:33:09;;;;;;;4.30;1.50;;;;;;;11.45;79.73;100942.16;5033324;28;20025;-71
2024/04/06 00:35:34;;;;;;;3.97;1.50;;;;;;;11.31;80.03;100949.34;5031585;28;20068;-73
2024/04/06 00:38:00;;;;;;;4.18;1.50;;;;;;;11.30;80.23;100949.25;5032731;28;20025;-70
2024/04/06 00:40:25;;;;;;;4.63;1.80;;;;;;;11.33;80.85;100952.84;5016812;28;20411;-79
2024/04/06 00:42:51;;;;;;;4.95;1.70;;;;;;;11.42;80.40;100946.31;5053123;28;20036;-72
2024/04/06 00:45:17;;;;;;;6.03;1.58;;;;;;;11.38;78.56;100954.75;5053005;28;20029;-74
2024/04/06 00:47:42;;;;;;;3.90;1.80;;;;;;;11.14;78.54;100958.06;5053040;28;20467;-72
2024/04/06 00:50:09;;;;;;;3.45;1.50;;;;;;;11.07;79.44;100956.91;5034808;28;20205;-73
2024/04/06 00:52:34;;;;;;;5.43;1.80;;;;;;;10.76;80.38;100955.59;5032121;28;20404;-70
2024/04/06 00:55:01;;;;;;;3.13;1.55;;;;;;;10.88;80.76;100962.09;5032648;28;20021;-72
2024/04/06 00:57:28;;;;;;;4.30;1.60;;;;;;;10.80;81.02;100965.25;5032958;28;20037;-72
2024/04/06 00:59:53;;;;;;;4.43;1.90;;;;;;;10.82;81.76;100968.78;5031343;28;20045;-75
2024/04/06 01:02:19;;;;;;;3.28;1.60;;;;;;;10.83;81.53;100970.53;5033109;28;20037;-71
2024/04/06 01:04:44;;;;;;;8.60;1.77;;;;;;;10.80;81.95;100967.84;5030785;28;20037;-71
2024/04/06 01:07:10;;;;;;;2.85;1.60;;;;;;;10.65;82.49;100970.63;5027349;28;20080;-71
2024/04/06 01:09:35;;;;;;;8.13;2.15;;;;;;;10.64;83.25;100992.09;5032504;28;20033;-74
2024/04/06 01:12:01;;;;;;;4.90;2.10;;;;;;;10.60;83.78;100974.69;5032671;28;20080;-71
2024/04/06 01:14:26;;;;;;;4.50;1.80;;;;;;;10.68;84.28;100975.03;5032977;28;20037;-75
2024/04/06 01:16:52;;;;;;;4.97;1.70;;;;;;;10.38;84.41;100934.13;5032842;28;20442;-71
2024/04/06 01:19:18;;;;;;;3.40;1.70;;;;;;;10.65;84.68;100961.97;5032563;28;20037;-72
2024/04/06 01:21:44;;;;;;;3.10;1.50;;;;;;;10.77;86.34;100959.06;5030608;28;20482;-74
2024/04/06 01:24:31;;;;;;;5.13;1.80;;;;;;;10.72;90.62;100961.44;5032023;28;20042;-73
2024/04/06 01:26:58;;;;;;;7.82;1.85;;;;;;;10.78;90.82;100959.13;5032316;28;20054;-74
2024/04/06 01:29:26;;;;;;;5.05;1.60;;;;;;;10.68;88.99;100924.28;5032543;28;20033;-70
2024/04/06 01:31:52;;;;;;;5.88;1.60;;;;;;;10.96;91.20;100965.91;5032482;28;20506;-74
2024/04/06 01:34:17;;;;;;;10.13;1.90;;;;;;;10.76;91.63;100963.34;5032240;28;20034;-71
2024/04/06 01:36:43;;;;;;;7.95;2.42;;;;;;;10.42;93.62;100941.19;5032087;28;20552;-70
2024/04/06 01:39:09;;;;;;;8.45;1.88;;;;;;;10.19;92.79;100951.31;5029846;28;20021;-71
2024/04/06 01:41:36;;;;;;;5.50;1.77;;;;;;;9.87;92.17;100919.72;4996269;28;20045;-70
2024/04/06 01:44:05;;;;;;;6.28;1.90;;;;;;;10.17;91.73;100958.09;5032092;28;20028;-70
2024/04/06 01:46:31;;;;;;;6.72;2.20;;;;;;;10.13;90.82;100948.44;5031927;28;20029;-76
2024/04/06 01:48:58;;;;;;;4.50;1.75;;;;;;;10.02;90.53;100958.25;5031867;28;20083;-71
2024/04/06 01:51:23;;;;;;;5.85;1.63;;;;;;;9.83;90.92;100938.47;5031993;28;20034;-75
2024/04/06 01:53:49;;;;;;;8.82;1.70;;;;;;;9.94;90.47;100930.34;5031524;28;20025;-74
2024/04/06 01:56:14;;;;;;;5.68;1.65;;;;;;;9.82;91.13;100931.53;5013924;28;20050;-70
2024/04/06 01:58:40;;;;;;;8.80;1.77;;;;;;;9.88;91.55;100946.41;5027952;28;20057;-73
2024/04/06 02:01:05;;;;;;;4.82;1.67;;;;;;;9.95;91.03;100932.13;5030458;28;20088;-74
2024/04/06 02:03:31;;;;;;;3.83;1.70;;;;;;;9.94;90.91;100925.19;5030896;28;20112;-70
2024/04/06 02:05:57;;;;;;;6.03;1.77;;;;;;;9.61;91.29;100892.72;5031538;28;20463;-71
2024/04/06 02:08:23;;;;;;;8.02;2.10;;;;;;;9.80;91.35;100916.81;5031211;28;20033;-71
2024/04/06 02:10:49;;;;;;;5.38;2.28;;;;;;;9.49;91.94;100889.56;5028865;28;20044;-74
2024/04/06 02:13:14;;;;;;;5.45;2.35;;;;;;;9.28;92.37;100866.22;5030965;28;20037;-75
2024/04/06 02:15:40;;;;;;;9.25;2.45;;;;;;;9.63;92.43;100903.09;5031383;28;20423;-71
2024/04/06 02:18:06;;;;;;;9.38;2.47;;;;;;;9.75;92.19;100929.47;5031313;28;20037;-74
2024/04/06 02:20:31;;;;;;;3.78;1.92;;;;;;;9.74;92.33;100935.44;5031204;28;20494;-72
2024/04/06 02:22:57;;;;;;;4.75;1.98;;;;;;;9.65;91.96;100904.06;5030954;28;20037;-71
2024/04/06 02:25:22;;;;;;;4.82;1.67;;;;;;;9.78;91.72;100933.88;5029471;28;20064;-71
2024/04/06 02:27:48;;;;;;;5.40;2.35;;;;;;;9.79;91.77;100935.66;5030950;28;20044;-70
2024/04/06 02:30:14;;;;;;;4.72;1.80;;;;;;;9.81;91.59;100934.91;5031284;28;20025;-73
2024/04/06 02:32:39;;;;;;;5.47;2.05;;;;;;;9.60;91.40;100885.78;5031008;28;20083;-71
2024/04/06 02:35:05;;;;;;;6.43;2.00;;;;;;;9.63;91.72;100937.50;5030792;28;20119;-73
2024/04/06 02:37:31;;;;;;;5.70;2.35;;;;;;;9.23;92.96;100932.97;5028908;28;20119;-73
2024/04/06 02:39:56;;;;;;;4.35;1.80;;;;;;;9.18;93.48;100952.47;5031082;28;20026;-69
2024/04/06 02:42:22;;;;;;;3.25;1.92;;;;;;;8.99;93.53;100920.63;5031211;28;20033;-72
2024/04/06 02:44:47;;;;;;;6.45;1.98;;;;;;;9.12;93.72;100947.00;5031155;28;20033;-72
2024/04/06 02:47:13;;;;;;;4.72;2.20;;;;;;;9.15;93.97;100947.16;5031151;28;20065;-70
2024/04/06 02:49:39;;;;;;;5.20;2.20;;;;;;;8.92;94.00;100948.56;5027090;28;20030;-74
2024/04/06 02:52:04;;;;;;;6.65;1.90;;;;;;;8.89;94.53;100952.75;5030291;28;20372;-71
2024/04/06 02:54:30;;;;;;;4.03;1.77;;;;;;;8.93;94.87;100946.06;5031242;28;20112;-74
2024/04/06 02:56:55;;;;;;;5.13;1.52;;;;;;;8.90;94.77;100946.78;5030789;28;20048;-71
2024/04/06 02:59:21;;;;;;;5.45;1.85;;;;;;;8.90;95.16;100938.19;5030412;28;20116;-73
2024/04/06 03:01:46;;;;;;;9.27;1.83;;;;;;;8.94;95.78;100939.25;5030873;28;20033;-71
2024/04/06 03:04:12;;;;;;;4.82;1.60;;;;;;;9.12;95.69;100941.84;5029382;28;20033;-73
2024/04/06 03:06:38;;;;;;;3.80;1.73;;;;;;;9.27;94.39;100936.56;5030561;28;20033;-71
2024/04/06 03:09:06;;;;;;;6.18;1.90;;;;;;;9.48;92.33;100942.81;5030574;28;20061;-70
2024/04/06 03:11:32;;;;;;;3.50;1.60;;;;;;;9.67;89.59;100935.94;5030361;28;20021;-71
2024/04/06 03:13:57;;;;;;;4.55;1.70;;;;;;;9.75;89.18;100939.78;5012634;28;20083;-73
2024/04/06 03:16:23;;;;;;;4.57;1.73;;;;;;;9.66;89.58;100937.66;5030499;28;20017;-74
2024/04/06 03:18:48;;;;;;;7.20;2.50;;;;;;;9.64;89.54;100928.94;5030238;28;20407;-75
2024/04/06 03:21:14;;;;;;;7.57;2.03;;;;;;;9.57;89.68;100915.69;5030753;28;20030;-72
2024/04/06 03:23:39;;;;;;;6.55;2.38;;;;;;;9.70;89.54;100918.94;5030215;28;20106;-71
2024/04/06 03:26:05;;;;;;;8.13;1.52;;;;;;;9.88;88.51;100943.81;5030257;28;20022;-73
2024/04/06 03:28:30;;;;;;;8.70;2.00;;;;;;;9.82;88.43;100952.16;5028789;28;20567;-73
2024/04/06 03:30:58;;;;;;;5.95;1.40;;;;;;;9.19;90.18;100937.06;5028720;28;20030;-70
2024/04/06 03:33:23;;;;;;;4.20;1.50;;;;;;;9.21;90.86;100960.34;5030230;28;20026;-70
2024/04/06 03:35:49;;;;;;;7.28;1.70;;;;;;;9.17;90.97;100945.53;5030012;28;20036;-74
2024/04/06 03:38:14;;;;;;;8.55;1.77;;;;;;;8.97;91.12;100927.41;5030505;28;20042;-73
2024/04/06 03:40:40;;;;;;;7.75;1.80;;;;;;;9.03;92.23;100956.06;5030294;28;20029;-74
2024/04/06 03:43:06;;;;;;;8.75;2.03;;;;;;;8.69;93.71;100927.69;5028157;28;20104;-74
2024/04/06 03:45:34;;;;;;;8.00;1.80;;;;;;;8.78;94.72;100946.16;5015209;28;20404;-70
2024/04/06 03:48:01;;;;;;;9.25;1.70;;;;;;;8.69;95.70;100945.69;5010444;28;20034;-72
2024/04/06 03:50:26;;;;;;;7.50;1.90;;;;;;;8.58;96.81;100958.00;5010614;28;20042;-73
2024/04/06 03:52:52;;;;;;;11.88;1.77;;;;;;;8.51;97.84;100961.94;5010664;28;20092;-72
2024/04/06 03:55:17;;;;;;;11.20;1.95;;;;;;;8.48;97.81;100942.88;5024305;28;20485;-72
2024/04/06 03:57:43;;;;;;;13.25;1.65;;;;;;;8.61;97.53;100964.97;5029472;28;20109;-71
2024/04/06 04:00:09;;;;;;;6.72;1.70;;;;;;;8.49;97.06;100950.66;5027429;28;20049;-71
2024/04/06 04:02:38;;;;;;;8.38;2.15;;;;;;;8.72;96.61;100980.22;5030467;28;20029;-70
2024/04/06 04:05:03;;;;;;;7.85;2.00;;;;;;;8.83;95.89;100980.75;5012134;28;20028;-70
2024/04/06 04:07:30;;;;;;;11.05;2.08;;;;;;;8.74;93.28;100957.09;5029976;28;20025;-71
2024/04/06 04:09:57;;;;;;;5.32;1.77;;;;;;;8.70;92.63;100963.78;5027713;28;20037;-72
2024/04/06 04:12:24;;;;;;;7.57;1.50;;;;;;;8.64;92.15;100942.88;5029898;28;20033;-70
2024/04/06 04:14:50;;;;;;;7.70;1.70;;;;;;;8.69;91.22;100949.13;5030027;28;20041;-71
2024/04/06 04:17:15;;;;;;;6.45;1.52;;;;;;;8.58;91.30;100976.00;5030061;28;20475;-71
2024/04/06 04:19:41;;;;;;;7.05;2.15;;;;;;;8.43;92.99;100982.06;5029662;28;20041;-71
2024/04/06 04:22:06;;;;;;;5.90;1.60;;;;;;;8.46;93.38;100980.47;5026398;28;20033;-74
2024/04/06 04:24:32;;;;;;;6.00;1.65;;;;;;;8.47;93.35;100978.00;5025776;28;20398;-71
2024/04/06 04:26:57;;;;;;;5.00;2.10;;;;;;;8.46;93.29;100965.97;5012455;28;20084;-73
2024/04/06 04:29:23;;;;;;;7.63;2.28;;;;;;;8.76;92.83;100988.06;5013412;28;20492;-72
2024/04/06 04:31:48;;;;;;;6.38;1.92;;;;;;;8.81;92.41;100996.91;5013964;28;20095;-72
2024/04/06 04:34:14;;;;;;;7.82;3.47;;;;;;;8.82;92.70;100976.44;5013446;28;20022;-70
2024/04/06 04:36:39;;;;;;;9.43;4.60;;;;;;;8.85;92.75;100976.56;5017185;28;20060;-75
2024/04/06 04:39:05;;;;;;;9.40;4.45;;;;;;;8.93;92.49;100969.25;5033306;28;20048;-75
2024/04/06 04:41:31;;;;;;;10.45;4.20;;;;;;;8.89;92.70;100972.47;5033104;28;20076;-73
2024/04/06 04:43:56;;;;;;;8.02;4.60;;;;;;;8.72;93.60;100953.56;5033154;28;20060;-73
2024/04/06 04:46:22;;;;;;;6.43;3.20;;;;;;;8.77;94.96;100980.41;5033072;28;20025;-73
2024/04/06 04:48:59;;;;;;;8.63;3.85;;;;;;;8.84;95.26;100961.06;5032640;28;20040;-74
2024/04/06 04:51:26;;;;;;;7.38;1.88;;;;;;;8.96;94.31;100966.84;5032684;28;20037;-71
2024/04/06 04:53:52;;;;;;;4.82;1.92;;;;;;;9.03;93.63;100963.78;5032058;28;20099;-74
2024/04/06 04:56:18;;;;;;;6.38;1.65;;;;;;;9.09;92.92;100970.91;5031895;28;20034;-72
2024/04/06 04:58:44;;;;;;;2.65;1.60;;;;;;;9.14;92.77;100966.88;5032724;28;20515;-72
2024/04/06 05:01:09;;;;;;;5.10;1.90;;;;;;;9.12;92.74;100970.19;5014737;28;20062;-72
2024/04/06 05:03:35;;;;;;;3.05;1.50;;;;;;;9.27;92.02;100973.56;5015062;28;20033;-75
2024/04/06 05:06:01;;;;;;;2.53;1.60;;;;;;;9.22;91.73;100960.44;5032906;28;20044;-71
2024/04/06 05:08:27;;;;;;;9.93;2.38;;;;;;;9.31;91.95;100984.88;5024514;28;20034;-72
2024/04/06 05:10:52;;;;;;;7.07;1.98;;;;;;;8.96;92.14;100925.63;5030116;28;20087;-71
2024/04/06 05:13:18;;;;;;;4.63;2.03;;;;;;;9.33;93.02;100986.75;5032420;28;20033;-76
2024/04/06 05:15:52;;;;;;;6.15;2.03;;;;;;;9.19;92.58;100951.66;5015078;28;20168;-70
2024/04/06 05:18:19;;;;;;;4.70;1.73;;;;;;;9.39;92.99;100970.69;4998220;28;20064;-70
2024/04/06 05:20:52;;;;;;;3.40;1.70;;;;;;;9.61;93.55;100990.69;5025331;28;20037;-74
2024/04/06 05:23:18;;;;;;;4.35;1.80;;;;;;;9.58;94.33;100972.47;5031946;28;20106;-74
2024/04/06 05:25:49;;;;;;;4.00;1.77;;;;;;;9.78;94.86;100991.50;5029183;28;20548;-72
2024/04/06 05:28:16;;;;;;;4.97;2.10;;;;;;;9.90;95.17;101004.09;5028366;28;20042;-74
2024/04/06 05:30:45;;;;;;;3.13;2.03;;;;;;;9.87;95.78;101011.72;5026372;28;20034;-74
2024/04/06 05:33:11;;;;;;;4.93;2.40;;;;;;;9.88;95.21;100988.56;5023584;28;20130;-72
2024/04/06 05:35:36;;;;;;;17.23;2.70;;;;;;;10.12;95.53;101003.44;5050979;28;20120;-74
2024/04/06 05:38:04;;;;;;;4.85;1.60;;;;;;;9.73;98.01;100982.66;5024484;28;20601;-71
2024/04/06 05:40:29;;;;;;;4.63;2.03;;;;;;;9.57;100.00;100988.78;5028998;28;20568;-72
2024/04/06 05:42:55;;;;;;;5.00;1.90;;;;;;;9.60;100.00;101000.94;5023542;28;20030;-72
2024/04/06 05:45:20;;;;;;;5.50;2.00;;;;;;;9.71;100.00;100999.75;5024196;28;20025;-74
2024/04/06 05:47:46;;;;;;;10.18;2.40;;;;;;;9.79;100.00;100997.53;5028287;28;20511;-72
2024/04/06 05:50:11;;;;;;;6.63;2.20;;;;;;;9.78;100.00;100988.94;5029692;28;20041;-72
2024/04/06 05:52:37;;;;;;;3.92;1.88;;;;;;;9.92;100.00;100992.19;5019936;28;20030;-72
2024/04/06 05:55:05;;;;;;;6.00;3.70;;;;;;;9.99;100.00;100991.66;5020134;28;20022;-72
2024/04/06 05:57:31;;;;;;;4.30;2.13;;;;;;;10.06;100.00;100994.53;5026532;28;20032;-75
2024/04/06 05:59:57;;;;;;;4.93;2.13;;;;;;;9.50;100.00;100889.63;5028044;28;20057;-71
2024/04/06 06:02:22;;;;;;;4.15;2.28;;;;;;;10.11;100.00;100995.63;5024777;28;20042;-70
2024/04/06 06:04:48;;;;;;;6.90;2.50;;;;;;;10.23;100.00;101010.78;5026348;28;20045;-70
2024/04/06 06:07:13;;;;;;;11.10;2.40;;;;;;;10.29;100.00;101009.41;5001215;28;20045;-73
2024/04/06 06:09:39;;;;;;;7.82;2.13;;;;;;;10.34;100.00;101009.59;5026660;28;20029;-70
2024/04/06 06:12:05;;;;;;;4.75;2.85;;;;;;;10.32;100.00;100970.81;5021930;28;20041;-72
2024/04/06 06:14:30;;;;;;;6.28;2.40;;;;;;;10.65;99.74;100995.53;5027501;28;20029;-73
2024/04/06 06:16:56;;;;;;;8.07;2.20;;;;;;;10.77;98.90;100995.22;5021258;28;20036;-73
2024/04/06 06:19:21;;;;;;;4.22;2.08;;;;;;;10.89;98.21;100995.78;5020751;28;20087;-72
2024/04/06 06:21:47;;;;;;;8.00;2.47;;;;;;;10.91;97.79;100998.41;5029405;28;20529;-71
2024/04/06 06:24:13;;;;;;;6.15;2.22;;;;;;;10.96;98.25;100989.16;5030480;28;20032;-73
2024/04/06 06:26:38;;;;;;;6.97;2.10;;;;;;;11.04;97.61;100985.22;5030243;28;20053;-71
2024/04/06 06:29:03;;;;;;;7.22;2.40;;;;;;;11.08;96.53;100971.63;5030612;28;20120;-71
2024/04/06 06:31:29;;;;;;;5.30;2.05;;;;;;;11.19;93.77;100990.16;5027734;28;20033;-75
2024/04/06 06:33:56;;;;;;;6.88;2.13;;;;;;;11.32;95.63;100999.31;5030796;28;20029;-75
2024/04/06 06:36:21;;;;;;;6.70;2.00;;;;;;;11.33;97.31;101004.53;5030066;28;20402;-72
2024/04/06 06:38:48;;;;;;;7.32;2.42;;;;;;;11.22;97.74;100997.16;5027391;28;20091;-73
2024/04/06 06:41:13;;;;;;;14.98;2.97;;;;;;;11.48;97.30;101014.66;5030251;28;20068;-71
2024/04/06 06:43:39;;;;;;;6.43;2.38;;;;;;;11.64;98.42;101013.59;5030540;28;20049;-70
2024/04/06 06:46:05;;;;;;;8.10;2.38;;;;;;;11.68;98.68;100983.56;5030019;28;20034;-75
2024/04/06 06:48:31;;;;;;;8.60;2.60;;;;;;;11.23;99.20;100893.84;5027476;28;20037;-72
2024/04/06 06:50:56;;;;;;;8.43;2.88;;;;;;;11.99;98.64;101013.28;5030363;28;20034;-71
2024/04/06 06:53:21;;;;;;;4.18;2.20;;;;;;;11.94;98.16;100999.25;5025932;28;20476;-73
2024/04/06 06:55:47;;;;;;;8.35;2.75;;;;;;;11.82;98.78;100966.91;5029847;28;20040;-72
2024/04/06 06:58:12;;;;;;;5.53;2.25;;;;;;;12.21;98.28;100998.59;5030536;28;20045;-74
2024/04/06 07:00:38;;;;;;;5.07;2.35;;;;;;;12.28;98.73;101008.38;5030445;28;20132;-72
2024/04/06 07:03:04;;;;;;;6.70;2.63;;;;;;;12.45;97.50;101004.72;5028039;28;20468;-71
2024/04/06 07:05:29;;;;;;;5.65;2.38;;;;;;;12.67;98.44;101005.50;5027359;28;20033;-72
2024/04/06 07:07:58;;;;;;;6.82;2.28;;;;;;;12.73;95.14;100995.38;5028012;28;20096;-72
2024/04/06 07:10:23;;;;;;;4.85;2.25;;;;;;;12.89;96.06;101001.13;5030297;28;20029;-73
2024/04/06 07:12:49;;;;;;;7.78;2.53;;;;;;;13.08;95.11;101000.06;5030147;28;20037;-70
2024/04/06 07:15:14;;;;;;;6.18;3.05;;;;;;;13.31;94.51;101011.25;5030370;28;20108;-74
2024/04/06 07:17:40;;;;;;;4.68;2.78;;;;;;;13.36;93.21;101003.63;5030203;28;20025;-72
2024/04/06 07:20:06;;;;;;;6.88;3.33;;;;;;;13.28;95.08;100969.63;5029855;28;20461;-73
2024/04/06 07:22:31;;;;;;;5.03;2.95;;;;;;;13.47;93.88;100954.72;5027219;28;20026;-72
2024/04/06 07:24:57;;;;;;;6.07;2.83;;;;;;;13.98;92.87;101009.16;5013783;28;20091;-73
2024/04/06 07:27:22;;;;;;;4.85;2.85;;;;;;;14.05;92.60;100977.34;5012550;28;20056;-72
2024/04/06 07:29:48;;;;;;;7.03;2.80;;;;;;;14.42;91.78;100992.28;5030322;28;20034;-72
2024/04/06 07:32:14;;;;;;;11.40;2.95;;;;;;;14.56;89.12;100996.16;5030285;28;20061;-72
2024/04/06 07:34:39;;;;;;;7.25;2.60;;;;;;;14.74;84.82;100990.63;5028201;28;20068;-74
2024/04/06 07:37:05;;;;;;;6.13;2.78;;;;;;;14.87;82.84;100991.88;5028436;28;20103;-74
2024/04/06 07:39:30;;;;;;;5.28;2.50;;;;;;;15.03;90.48;100985.38;5025285;28;20041;-72
2024/04/06 07:41:56;;;;;;;4.22;2.28;;;;;;;15.23;89.80;100980.72;5030083;28;20057;-74
2024/04/06 07:44:21;;;;;;;5.60;2.80;;;;;;;15.31;90.08;100983.50;5028784;28;20045;-73
2024/04/06 07:46:47;;;;;;;3.97;2.60;;;;;;;15.23;88.52;100943.41;5030252;28;20052;-74
2024/04/06 07:49:13;;;;;;;7.78;2.70;;;;;;;15.70;88.92;100987.94;5018926;28;20052;-72
2024/04/06 07:51:41;;;;;;;5.50;2.33;;;;;;;15.93;90.57;100985.91;5029484;28;20033;-74
2024/04/06 07:54:07;;;;;;;8.93;2.70;;;;;;;16.08;85.67;100979.31;5029732;28;20112;-77
2024/04/06 07:56:33;;;;;;;9.65;2.50;;;;;;;16.29;74.35;100971.09;5018723;28;20026;-72
2024/04/06 07:58:59;;;;;;;7.65;2.75;;;;;;;16.38;73.86;100973.00;5010206;28;20104;-73
2024/04/06 08:01:25;;;;;;;6.50;2.60;;;;;;;16.43;76.57;100963.56;5027412;28;20068;-75
2024/04/06 08:03:50;;;;;;;7.25;2.53;;;;;;;16.62;71.92;100981.34;5003255;28;20084;-73
2024/04/06 08:06:18;;;;;;;6.78;2.55;;;;;;;16.71;73.09;100966.72;5031827;28;20484;-73
2024/04/06 08:08:44;;;;;;;6.50;2.60;;;;;;;16.96;67.54;100962.91;5032617;28;20033;-72
2024/04/06 08:11:10;;;;;;;10.15;3.40;;;;;;;17.13;68.95;100965.78;5032701;28;20033;-74
2024/04/06 08:13:35;;;;;;;6.65;2.90;;;;;;;17.25;67.73;100970.38;5033084;28;20029;-72
2024/04/06 08:16:01;;;;;;;7.18;3.15;;;;;;;17.26;65.56;100946.91;5032841;28;20037;-75
2024/04/06 08:18:26;;;;;;;4.95;2.40;;;;;;;17.45;66.53;100960.25;5033751;28;20099;-72
2024/04/06 08:20:52;;;;;;;5.97;2.55;;;;;;;17.50;65.80;100956.00;5047128;28;20111;-70
2024/04/06 08:23:18;;;;;;;6.07;2.60;;;;;;;17.50;65.06;100950.78;5035942;28;20104;-74
2024/04/06 08:25:44;;;;;;;5.60;2.45;;;;;;;17.51;66.12;100934.25;5032143;28;20484;-75
2024/04/06 08:28:10;;;;;;;10.88;3.00;;;;;;;17.71;61.49;100950.22;5033387;28;20076;-72
2024/04/06 08:30:35;;;;;;;5.97;2.58;;;;;;;17.60;62.77;100912.66;5033277;28;20049;-76
2024/04/06 08:33:01;;;;;;;6.88;2.47;;;;;;;18.03;60.49;100934.19;5031305;28;20463;-75
2024/04/06 08:35:26;;;;;;;4.82;2.72;;;;;;;18.03;58.76;100939.41;5029338;28;20045;-74
2024/04/06 08:37:52;;;;;;;5.95;2.60;;;;;;;17.92;61.05;100889.59;5032259;28;20033;-71
2024/04/06 08:40:17;;;;;;;8.20;3.00;;;;;;;18.34;63.10;100925.88;5032262;28;20458;-73
2024/04/06 08:42:44;;;;;;;7.68;2.35;;;;;;;18.52;57.38;100917.38;5031840;28;20064;-72
2024/04/06 08:45:10;;;;;;;4.88;2.53;;;;;;;18.71;57.85;100919.31;5033117;28;20033;-71
2024/04/06 08:47:36;;;;;;;5.35;2.60;;;;;;;18.84;59.22;100922.06;5033199;28;20035;-72
2024/04/06 08:50:07;;;;;;;4.32;2.60;;;;;;;18.81;61.15;100888.91;5032840;28;20029;-74
2024/04/06 08:52:39;;;;;;;4.90;2.05;;;;;;;18.85;53.18;100871.50;4981550;28;20046;-73
2024/04/06 08:55:08;;;;;;;5.82;2.35;;;;;;;19.37;50.19;100897.28;5032686;28;20549;-74
2024/04/06 08:57:37;;;;;;;3.97;2.20;;;;;;;19.52;51.21;100909.59;5032410;28;20068;-71
2024/04/06 09:00:07;;;;;;;4.25;2.25;;;;;;;19.70;49.68;100908.81;5031200;28;20515;-78
2024/04/06 09:02:36;;;;;;;5.32;2.17;;;;;;;19.95;58.80;100907.28;5030271;28;20483;-72
2024/04/06 09:05:03;;;;;;;6.78;2.88;;;;;;;20.05;62.62;100900.34;5047961;28;20496;-71
2024/04/06 09:07:28;;;;;;;11.25;2.45;;;;;;;19.93;59.33;100889.81;5032267;28;20061;-71
2024/04/06 09:09:54;;;;;;;4.93;2.97;;;;;;;19.93;58.26;100893.28;5032793;28;20516;-70
2024/04/06 09:12:20;;;;;;;5.63;3.17;;;;;;;19.92;63.44;100895.91;5032257;28;20479;-72
2024/04/06 09:14:47;;;;;;;11.43;2.80;;;;;;;19.93;59.67;100898.53;5032190;28;20116;-71
2024/04/06 09:17:21;;;;;;;12.98;2.90;;;;;;;20.05;59.06;100887.25;5032291;28;20434;-74
2024/04/06 09:19:47;;;;;;;6.07;2.55;;;;;;;20.14;55.96;100895.13;5032124;28;20437;-72
2024/04/06 09:22:12;;;;;;;5.70;2.60;;;;;;;20.16;59.32;100888.16;5032365;28;20064;-70
2024/04/06 09:24:38;;;;;;;13.20;2.45;;;;;;;20.07;57.25;100833.06;5032305;28;20026;-71
2024/04/06 09:27:11;;;;;;;5.65;2.45;;;;;;;20.51;54.33;100882.16;5029495;28;20040;-73
2024/04/06 09:29:37;;;;;;;6.82;2.63;;;;;;;20.60;54.02;100877.78;5037478;28;20029;-73
2024/04/06 09:32:07;;;;;;;7.95;2.78;;;;;;;20.74;52.73;100867.38;5036238;28;20025;-71
2024/04/06 09:34:37;;;;;;;11.73;3.47;;;;;;;20.90;52.86;100878.72;5039746;28;20106;-70
2024/04/06 09:37:07;;;;;;;8.48;2.58;;;;;;;21.00;52.02;100870.00;4999583;28;20064;-70
2024/04/06 09:39:34;;;;;;;12.75;2.60;;;;;;;21.26;52.57;100871.72;5031389;28;20060;-72
2024/04/06 09:42:03;;;;;;;6.57;2.17;;;;;;;21.42;52.14;100870.84;5031494;28;20033;-75
2024/04/06 09:44:30;;;;;;;9.77;3.17;;;;;;;21.48;49.35;100855.09;5015345;28;20025;-72
2024/04/06 09:46:55;;;;;;;7.57;2.20;;;;;;;21.52;48.95;100857.69;5022201;28;20432;-71
2024/04/06 09:49:24;;;;;;;4.53;2.10;;;;;;;21.65;51.38;100854.19;5030731;28;20029;-73
2024/04/06 09:51:53;;;;;;;4.63;2.00;;;;;;;21.71;49.55;100856.81;5030722;28;20074;-73
2024/04/06 09:54:19;;;;;;;3.07;1.63;;;;;;;21.75;46.72;100848.03;5031209;28;20017;-75
2024/04/06 09:56:48;;;;;;;4.55;1.85;;;;;;;21.80;41.89;100845.41;5030993;28;20311;-73
2024/04/06 09:59:26;;;;;;;6.00;2.00;;;;;;;21.69;47.30;100845.41;5026086;28;20030;-74
2024/04/06 10:01:56;;;;;;;6.67;2.20;;;;;;;21.36;51.68;100852.47;5030798;28;20057;-73
2024/04/06 10:04:22;;;;;;;;;;;;;;;21.31;52.97;100847.22;5030223;28;20276;-73
2024/04/06 10:07:01;;;;;;;3.50;1.98;;;;;;;21.43;53.52;100837.56;5027419;28;19979;-74
2024/04/06 10:09:35;;;;;;;4.32;1.40;;;;;;;21.43;44.91;100809.56;5025677;28;20484;-78
2024/04/06 10:12:03;;;;;;;6.82;1.90;;;;;;;22.04;40.57;100818.13;5029649;28;20491;-74
2024/04/06 10:14:29;;;;;;;2.75;1.42;;;;;;;22.23;38.64;100810.13;5025810;28;20095;-72
2024/04/06 10:17:08;;;;;;;8.45;1.48;;;;;;;22.77;38.32;100818.56;5030576;28;20133;-74
2024/04/06 10:19:40;;;;;;;4.68;1.40;;;;;;;22.74;37.29;100770.34;5030487;28;20025;-70
2024/04/06 10:22:06;;;;;;;2.35;1.10;;;;;;;23.07;36.15;100805.16;5030007;28;20041;-72
2024/04/06 10:24:35;;;;;;;1.77;1.15;;;;;;;23.14;37.01;100800.69;5020582;28;20056;-73
2024/04/06 10:27:01;;;;;;;2.80;1.13;;;;;;;23.02;40.22;100757.78;5030136;28;20036;-74
2024/04/06 10:29:28;;;;;;;5.50;1.60;;;;;;;23.24;39.44;100782.19;5029965;28;20408;-73
2024/04/06 10:31:54;;;;;;;3.38;1.30;;;;;;;22.97;41.08;100754.34;5030125;28;20041;-73
2024/04/06 10:34:20;;;;;;;7.40;1.38;;;;;;;23.38;37.46;100778.53;5030173;28;20099;-73
2024/04/06 10:36:47;;;;;;;3.70;1.67;;;;;;;23.25;37.67;100770.78;5030055;28;20033;-70
2024/04/06 10:39:14;;;;;;;4.07;1.48;;;;;;;23.33;37.13;100780.31;5011088;28;20502;-71
2024/04/06 10:41:44;;;;;;;4.93;1.17;;;;;;;23.47;36.52;100759.13;5024829;28;20044;-73
2024/04/06 10:44:12;;;;;;;1.70;1.10;;;;;;;23.67;37.18;100764.13;5028119;28;20030;-73
2024/04/06 10:46:39;;;;;;;1.70;1.10;;;;;;;23.77;36.01;100754.34;5022449;28;20025;-73
2024/04/06 10:49:14;;;;;;;1.92;1.08;;;;;;;23.96;35.32;100762.91;5021145;28;20037;-77
2024/04/06 10:51:40;;;;;;;2.35;1.30;;;;;;;24.00;35.21;100754.94;5029313;28;20411;-75
2024/04/06 10:54:07;;;;;;;5.15;1.08;;;;;;;24.04;35.92;100761.91;5012044;28;20021;-72
2024/04/06 10:56:35;;;;;;;19.75;2.75;;;;;;;23.94;36.22;100731.28;5029636;28;20028;-75
2024/04/06 10:59:02;;;;;;;2.03;1.13;;;;;;;24.17;34.84;100725.66;5016603;28;20112;-74
2024/04/06 11:01:34;;;;;;;1.45;1.20;;;;;;;24.24;35.29;100731.72;5030327;28;20046;-73
2024/04/06 11:04:02;;;;;;;2.30;1.27;;;;;;;24.06;35.25;100749.56;5029267;28;20696;-73
2024/04/06 11:06:28;;;;;;;4.75;1.48;;;;;;;24.04;35.18;100719.72;5018963;28;20064;-73
2024/04/06 11:08:55;;;;;;;3.22;1.40;;;;;;;24.43;35.00;100734.06;5029475;28;20061;-73
2024/04/06 11:11:21;;;;;;;5.47;1.60;;;;;;;24.62;34.91;100726.72;5030457;28;20112;-75
2024/04/06 11:13:47;;;;;;;3.10;1.30;;;;;;;24.52;35.17;100696.97;5029359;28;20029;-74
2024/04/06 11:16:13;;;;;;;4.07;1.70;;;;;;;24.68;35.02;100722.22;5028989;28;20128;-76
2024/04/06 11:18:47;;;;;;;3.83;1.80;;;;;;;24.64;36.72;100722.28;5026339;28;20025;-72
2024/04/06 11:21:13;;;;;;;7.18;1.95;;;;;;;24.75;35.29;100699.22;5027256;28;20471;-73
2024/04/06 11:23:43;;;;;;;2.58;1.60;;;;;;;25.00;34.55;100714.63;5030096;28;20057;-73